Time;durP1;ratioP1;P1;durP2;ratioP2;P2;SDS_P1;SDS_P2;PMS_P1;PMS_P2;Temp;Humidity;BMP_temperature;BMP_pressure;BME280_temperature;BME280_humidity;BME280_pressure;Samples;Min_cycle;Max_cycle;Signal;HPM_P1;HPM_P2
2023/07/23 00:03:56;;;;;;;4.28;2.25;;;;;;;20.90;51.63;99835.53;7631321;32;40050;-78
2023/07/23 00:08:13;;;;;;;4.03;2.22;;;;;;;20.68;52.02;99836.69;7656121;32;38767;-78
2023/07/23 00:12:29;;;;;;;4.35;2.20;;;;;;;20.71;51.94;99844.34;7657465;32;37889;-78
2023/07/23 00:16:46;;;;;;;5.95;2.78;;;;;;;20.73;51.87;99842.03;7631851;32;39358;-77
2023/07/23 00:21:03;;;;;;;3.55;1.92;;;;;;;20.50;52.47;99850.66;7631004;32;39894;-77
2023/07/23 00:25:19;;;;;;;4.45;2.30;;;;;;;20.52;52.27;99856.66;7630808;32;38670;-78
2023/07/23 00:29:35;;;;;;;7.05;2.75;;;;;;;20.41;52.84;99856.25;7649808;32;37083;-78
2023/07/23 00:33:52;;;;;;;3.55;2.00;;;;;;;20.48;52.76;99852.16;7656915;32;39396;-77
2023/07/23 00:38:08;;;;;;;3.87;2.40;;;;;;;20.32;53.51;99851.94;7655637;32;39929;-78
2023/07/23 00:42:24;;;;;;;3.62;2.15;;;;;;;20.17;53.62;99854.13;7656607;32;37627;-77
2023/07/23 00:46:41;;;;;;;5.45;2.50;;;;;;;20.18;53.37;99858.53;7658742;32;37915;-78
2023/07/23 00:50:57;;;;;;;5.87;2.70;;;;;;;20.23;53.40;99850.03;7660228;32;39323;-79
2023/07/23 00:55:14;;;;;;;4.43;2.20;;;;;;;20.16;53.55;99846.16;7659722;32;40110;-76
2023/07/23 00:59:32;;;;;;;3.90;2.22;;;;;;;20.19;53.38;99851.81;7658517;32;38509;-78
2023/07/23 01:03:50;;;;;;;5.45;2.33;;;;;;;20.18;53.41;99849.41;7659721;32;39158;-78
2023/07/23 01:08:07;;;;;;;4.45;2.33;;;;;;;20.05;53.96;99862.34;7660047;32;41212;-79
2023/07/23 01:12:24;;;;;;;3.10;2.12;;;;;;;20.00;54.21;99862.53;7659747;32;39951;-78
2023/07/23 01:16:41;;;;;;;4.82;2.70;;;;;;;19.95;54.46;99854.41;7658553;32;37859;-78
2023/07/23 01:20:57;;;;;;;4.32;2.60;;;;;;;19.89;54.69;99846.31;7658463;32;36991;-78
2023/07/23 01:25:14;;;;;;;4.80;2.47;;;;;;;19.95;54.51;99857.97;7658048;32;39394;-77
2023/07/23 01:29:30;;;;;;;5.95;2.78;;;;;;;19.89;54.64;99854.59;7659447;32;39633;-77
2023/07/23 01:33:47;;;;;;;5.57;2.92;;;;;;;19.88;54.35;99857.69;7659587;32;38665;-78
2023/07/23 01:38:04;;;;;;;3.45;2.35;;;;;;;19.87;54.37;99856.09;7659452;32;37865;-78
2023/07/23 01:42:20;;;;;;;4.87;2.40;;;;;;;20.01;53.95;99844.78;7659260;32;40031;-77
2023/07/23 01:46:37;;;;;;;4.68;2.55;;;;;;;20.21;53.38;99844.03;7636430;32;40859;-77
2023/07/23 01:50:53;;;;;;;7.37;2.60;;;;;;;20.05;53.72;99835.47;7650102;32;37980;-79
2023/07/23 01:55:09;;;;;;;3.25;2.50;;;;;;;19.80;54.42;99844.72;7659350;32;37904;-78
2023/07/23 01:59:26;;;;;;;4.72;2.37;;;;;;;19.66;54.55;99833.84;7658331;32;40159;-78
2023/07/23 02:03:42;;;;;;;3.75;2.25;;;;;;;19.68;54.68;99842.66;7658909;32;39593;-77
2023/07/23 02:07:59;;;;;;;5.87;2.53;;;;;;;19.60;55.12;99840.72;7659140;32;38042;-78
2023/07/23 02:12:15;;;;;;;2.67;2.10;;;;;;;19.58;55.66;99845.78;7658935;32;37061;-77
2023/07/23 02:16:31;;;;;;;3.67;2.25;;;;;;;19.50;55.94;99831.63;7659069;32;39434;-78
2023/07/23 02:20:49;;;;;;;6.53;2.75;;;;;;;19.50;55.81;99830.81;7658938;32;39902;-79
2023/07/23 02:25:05;;;;;;;6.62;2.30;;;;;;;19.50;55.51;99831.63;7658778;32;38642;-78
2023/07/23 02:29:22;;;;;;;10.23;2.78;;;;;;;19.56;55.27;99835.03;7658937;32;37359;-78
2023/07/23 02:33:38;;;;;;;5.78;2.58;;;;;;;19.62;55.06;99839.22;7658741;32;40513;-78
2023/07/23 02:37:55;;;;;;;4.93;2.25;;;;;;;19.69;54.85;99842.28;7658780;32;39839;-78
2023/07/23 02:42:11;;;;;;;5.18;2.37;;;;;;;19.78;54.99;99842.31;7658623;32;37954;-77
2023/07/23 02:46:27;;;;;;;5.05;2.60;;;;;;;19.78;55.17;99847.84;7658810;32;37753;-76
2023/07/23 02:50:44;;;;;;;5.68;2.80;;;;;;;19.69;55.50;99842.28;7658740;32;40102;-78
2023/07/23 02:55:00;;;;;;;5.47;2.47;;;;;;;19.44;56.47;99835.72;7658395;32;40044;-78
2023/07/23 02:59:16;;;;;;;6.80;3.20;;;;;;;19.61;56.06;99836.78;7658255;32;37653;-77
2023/07/23 03:03:33;;;;;;;4.55;2.75;;;;;;;19.52;56.31;99834.88;7658190;32;37007;-77
2023/07/23 03:07:51;;;;;;;4.40;2.67;;;;;;;19.43;56.72;99825.78;7658166;32;39405;-78
2023/07/23 03:12:09;;;;;;;3.47;2.35;;;;;;;19.39;56.93;99824.84;7658465;32;40877;-78
2023/07/23 03:16:29;;;;;;;6.03;2.70;;;;;;;19.39;56.95;99818.50;7657353;32;36839;-78
2023/07/23 03:20:45;;;;;;;5.05;2.60;;;;;;;19.40;56.86;99823.69;7658230;32;37816;-77
2023/07/23 03:25:01;;;;;;;5.87;2.37;;;;;;;19.39;56.84;99824.84;7658248;32;40126;-78
2023/07/23 03:29:18;;;;;;;6.03;2.75;;;;;;;19.51;56.63;99826.94;7658247;32;39777;-78
2023/07/23 03:33:34;;;;;;;8.20;3.17;;;;;;;19.67;56.04;99827.97;7658115;32;37988;-79
2023/07/23 03:37:51;;;;;;;4.80;2.53;;;;;;;19.46;56.74;99825.16;7658181;32;37078;-78
2023/07/23 03:42:07;;;;;;;5.25;2.90;;;;;;;19.57;56.53;99831.13;7657603;32;40109;-78
2023/07/23 03:46:23;;;;;;;5.20;2.70;;;;;;;19.56;56.59;99836.97;7657874;32;39983;-78
2023/07/23 03:50:40;;;;;;;5.12;2.83;;;;;;;19.48;56.77;99831.16;7657729;32;38149;-78
2023/07/23 03:54:56;;;;;;;4.10;2.55;;;;;;;19.49;56.84;99835.53;7657772;32;38050;-77
2023/07/23 03:59:13;;;;;;;7.00;2.53;;;;;;;19.46;57.11;99825.16;7657715;32;39983;-78
2023/07/23 04:03:29;;;;;;;5.93;2.55;;;;;;;19.41;57.35;99832.81;7657231;32;39963;-78
2023/07/23 04:07:45;;;;;;;4.07;2.55;;;;;;;19.41;57.39;99833.63;7657524;32;37886;-78
2023/07/23 04:12:02;;;;;;;8.18;2.85;;;;;;;19.35;57.78;99829.44;7657527;32;37113;-78
2023/07/23 04:16:18;;;;;;;7.20;2.80;;;;;;;19.29;58.08;99836.25;7657513;32;39134;-78
2023/07/23 04:20:35;;;;;;;6.10;2.78;;;;;;;19.28;58.18;99829.94;7660377;32;40126;-77
2023/07/23 04:24:51;;;;;;;6.80;2.90;;;;;;;19.32;58.04;99844.69;7665831;32;37831;-77
2023/07/23 04:29:08;;;;;;;5.47;2.72;;;;;;;19.13;58.98;99841.50;7665659;32;37143;-78
2023/07/23 04:33:24;;;;;;;3.45;2.40;;;;;;;19.33;58.39;99839.97;7665649;32;39312;-78
2023/07/23 04:37:40;;;;;;;6.10;2.53;;;;;;;19.47;57.95;99837.00;7664565;32;39961;-76
2023/07/23 04:41:57;;;;;;;5.43;2.55;;;;;;;19.44;58.55;99841.25;7665550;32;37640;-78
2023/07/23 04:46:13;;;;;;;6.87;2.60;;;;;;;19.43;58.83;99847.91;7665512;32;37201;-78
2023/07/23 04:50:30;;;;;;;4.45;2.62;;;;;;;19.47;59.14;99840.59;7665265;32;39334;-78
2023/07/23 04:54:46;;;;;;;5.30;2.70;;;;;;;19.64;59.25;99844.44;7665074;32;39776;-78
2023/07/23 04:59:02;;;;;;;6.65;2.53;;;;;;;19.59;60.21;99856.50;7664564;32;37772;-78
2023/07/23 05:03:19;;;;;;;6.25;2.53;;;;;;;19.92;59.42;99857.84;7665032;32;37132;-78
2023/07/23 05:07:36;;;;;;;6.10;3.00;;;;;;;20.03;59.45;99859.09;7664943;32;39293;-78
2023/07/23 05:11:54;;;;;;;5.70;2.75;;;;;;;20.06;59.42;99864.78;7664766;32;39926;-79
2023/07/23 05:16:10;;;;;;;5.82;2.50;;;;;;;20.04;59.33;99864.31;7664638;32;37977;-77
2023/07/23 05:20:27;;;;;;;4.80;2.70;;;;;;;20.21;59.06;99870.87;7664303;32;38049;-80
2023/07/23 05:24:43;;;;;;;5.05;2.53;;;;;;;20.40;58.84;99873.19;7664426;32;39318;-78
2023/07/23 05:28:59;;;;;;;6.53;2.87;;;;;;;20.58;58.34;99873.91;7664435;32;40011;-78
2023/07/23 05:33:16;;;;;;;7.93;2.33;;;;;;;20.75;57.61;99873.78;7660904;32;37886;-79
2023/07/23 05:37:32;;;;;;;4.50;2.60;;;;;;;20.93;57.01;99880.00;7659587;32;37027;-69
2023/07/23 05:41:48;;;;;;;6.75;2.80;;;;;;;20.90;57.46;99880.66;7658889;32;39068;-73
2023/07/23 05:46:05;;;;;;;4.22;2.60;;;;;;;21.15;56.31;99880.78;7655479;32;40990;-72
2023/07/23 05:50:21;;;;;;;7.85;2.50;;;;;;;21.35;55.70;99881.88;7658785;32;37837;-74
2023/07/23 05:54:38;;;;;;;5.22;2.80;;;;;;;21.50;55.52;99880.44;7658337;32;35439;-73
2023/07/23 05:58:54;;;;;;;6.90;2.87;;;;;;;21.69;55.10;99889.03;7656899;32;39309;-73
2023/07/23 06:03:10;;;;;;;4.35;2.47;;;;;;;21.98;54.33;99884.44;7643743;32;39594;-72
2023/07/23 06:07:27;;;;;;;10.63;3.10;;;;;;;21.79;55.09;99882.25;7658597;32;37910;-76
2023/07/23 06:11:44;;;;;;;5.65;2.12;;;;;;;21.97;54.12;99880.03;7657956;32;37887;-73
2023/07/23 06:16:01;;;;;;;4.60;2.70;;;;;;;22.13;54.06;99877.41;7655483;32;40011;-72
2023/07/23 06:20:17;;;;;;;4.55;2.72;;;;;;;22.07;54.19;99876.81;7657480;32;40545;-73
2023/07/23 06:24:33;;;;;;;6.15;2.70;;;;;;;22.37;54.28;99890.50;7658051;32;37950;-73
2023/07/23 06:28:50;;;;;;;4.30;2.60;;;;;;;22.38;53.95;99889.31;7657650;32;36872;-73
2023/07/23 06:33:06;;;;;;;6.43;2.53;;;;;;;22.90;53.03;99886.87;7658211;32;40080;-79
2023/07/23 06:37:22;;;;;;;5.50;2.87;;;;;;;22.72;52.90;99878.84;7652173;32;39736;-79
2023/07/23 06:41:40;;;;;;;4.28;2.67;;;;;;;22.84;52.76;99889.13;7657860;32;38129;-81
2023/07/23 06:45:56;;;;;;;6.80;2.87;;;;;;;23.11;52.53;99895.88;7646329;32;37840;-81
2023/07/23 06:50:13;;;;;;;5.05;2.72;;;;;;;23.53;51.26;99889.06;7641185;32;40025;-81
2023/07/23 06:54:29;;;;;;;5.20;2.55;;;;;;;23.60;50.81;99890.06;7638178;32;40791;-81
2023/07/23 06:58:47;;;;;;;4.43;2.58;;;;;;;23.87;49.45;99893.16;7642424;32;38743;-81
2023/07/23 07:03:03;;;;;;;5.20;2.70;;;;;;;24.26;47.38;99895.28;7640124;32;37066;-81
2023/07/23 07:07:20;;;;;;;5.60;2.60;;;;;;;24.47;46.02;99883.81;7639328;32;39459;-81
2023/07/23 07:11:36;;;;;;;11.02;2.90;;;;;;;24.79;45.27;99878.19;7640805;32;39825;-80
2023/07/23 07:15:53;;;;;;;6.70;2.55;;;;;;;24.85;45.10;99876.69;7646747;32;37814;-80
2023/07/23 07:20:12;;;;;;;5.82;2.60;;;;;;;25.15;45.56;99876.94;7646943;32;37836;-81
2023/07/23 07:24:28;;;;;;;4.05;2.35;;;;;;;25.20;44.76;99878.59;7657346;32;39523;-73
2023/07/23 07:28:45;;;;;;;4.32;2.12;;;;;;;24.90;45.17;99871.63;7656584;32;39973;-73
2023/07/23 07:33:01;;;;;;;4.93;2.72;;;;;;;24.95;44.71;99873.31;7657537;32;37985;-73
2023/07/23 07:37:18;;;;;;;4.28;2.60;;;;;;;25.46;44.49;99870.38;7657190;32;37168;-73
2023/07/23 07:41:34;;;;;;;6.75;2.92;;;;;;;25.59;43.27;99859.00;7657280;32;40077;-73
2023/07/23 07:45:59;;;;;;;4.68;2.75;;;;;;;25.74;44.47;99852.50;7657176;32;39643;-72
2023/07/23 07:50:17;;;;;;;5.45;2.70;;;;;;;25.33;43.83;99865.31;7657070;32;37781;-74
2023/07/23 07:54:37;;;;;;;4.55;2.30;;;;;;;25.49;43.16;99861.25;7655785;32;37553;-72
2023/07/23 07:58:54;;;;;;;6.03;2.55;;;;;;;25.99;42.65;99857.72;7656348;32;39303;-73
2023/07/23 08:03:11;;;;;;;4.75;2.17;;;;;;;26.24;41.37;99852.50;7657307;32;40002;-73
2023/07/23 08:07:28;;;;;;;5.05;2.62;;;;;;;26.10;42.50;99852.31;7656530;32;38812;-73
2023/07/23 08:11:46;;;;;;;5.32;2.37;;;;;;;26.13;41.44;99860.75;7656452;32;37965;-73
2023/07/23 08:16:03;;;;;;;5.03;2.55;;;;;;;25.65;43.30;99860.34;7656361;32;39312;-73
2023/07/23 08:20:20;;;;;;;4.80;2.42;;;;;;;26.01;42.76;99855.38;7654990;32;40036;-73
2023/07/23 08:24:37;;;;;;;4.00;2.42;;;;;;;26.13;43.14;99849.56;7656539;32;38614;-73
2023/07/23 08:28:59;;;;;;;5.85;2.70;;;;;;;26.54;41.96;99849.72;7654252;32;37105;-73
2023/07/23 08:33:17;;;;;;;4.87;2.30;;;;;;;26.94;42.11;99839.06;7646282;32;39951;-79
2023/07/23 08:37:34;;;;;;;4.07;2.20;;;;;;;26.97;42.35;99844.72;7655682;32;38967;-78
2023/07/23 08:42:20;;;;;;;4.60;2.42;;;;;;;27.30;40.92;99831.94;7656732;32;38115;-72
2023/07/23 08:46:46;;;;;;;6.90;2.47;;;;;;;27.33;40.88;99842.31;7656625;32;37172;-80
2023/07/23 08:51:03;;;;;;;5.22;2.37;;;;;;;27.45;40.38;99846.03;7656502;32;39930;-80
2023/07/23 08:55:19;;;;;;;4.12;2.08;;;;;;;27.55;37.88;99845.34;7656153;32;39877;-81
2023/07/23 08:59:39;;;;;;;4.95;2.30;;;;;;;27.98;36.38;99851.34;7656131;32;37932;-80
2023/07/23 09:03:55;;;;;;;4.97;2.30;;;;;;;28.00;36.06;99848.16;7656167;32;37229;-81
2023/07/23 09:08:12;;;;;;;5.40;2.50;;;;;;;28.17;34.62;99841.84;7658480;32;40297;-80
2023/07/23 09:12:29;;;;;;;5.78;2.60;;;;;;;28.30;33.43;99845.12;7659654;32;39948;-78
2023/07/23 09:16:48;;;;;;;4.20;2.35;;;;;;;28.31;31.60;99852.34;7649932;32;38267;-82
2023/07/23 09:21:06;;;;;;;5.07;2.37;;;;;;;28.74;31.96;99847.00;7650907;32;36107;-82
2023/07/23 09:25:22;;;;;;;4.80;2.50;;;;;;;28.94;31.42;99841.06;7649263;32;39349;-81
2023/07/23 09:29:43;;;;;;;6.40;2.25;;;;;;;29.17;30.98;99835.94;7649217;32;39793;-80
2023/07/23 09:34:01;;;;;;;6.40;2.50;;;;;;;28.68;30.74;99834.53;7652070;32;38009;-83
2023/07/23 09:38:17;;;;;;;5.70;2.55;;;;;;;28.84;32.64;99843.44;7652088;32;37178;-82
2023/07/23 09:42:38;;;;;;;4.25;2.25;;;;;;;29.59;29.43;99842.81;7652760;32;39634;-82
2023/07/23 09:46:57;;;;;;;5.43;2.35;;;;;;;29.05;29.05;99844.72;7653443;32;39749;-82
2023/07/23 09:51:14;;;;;;;5.72;2.70;;;;;;;29.52;30.19;99840.00;7650136;32;38652;-83
2023/07/23 09:55:31;;;;;;;6.12;2.30;;;;;;;29.76;28.47;99826.41;7650804;32;37695;-81
2023/07/23 09:59:48;;;;;;;6.25;2.33;;;;;;;30.26;27.45;99820.72;7649828;32;40148;-82
2023/07/23 10:04:05;;;;;;;4.35;2.28;;;;;;;29.95;27.64;99828.00;7650330;32;39861;-82
2023/07/23 10:08:22;;;;;;;3.37;2.10;;;;;;;29.54;27.60;99825.56;7656695;32;37861;-79
2023/07/23 10:12:38;;;;;;;2.85;1.80;;;;;;;29.76;28.18;99826.41;7656790;32;37039;-82
2023/07/23 10:16:55;;;;;;;3.47;2.08;;;;;;;30.13;27.52;99816.72;7651392;32;38994;-81
2023/07/23 10:21:11;;;;;;;4.03;2.22;;;;;;;30.21;26.86;99812.69;7656623;32;39881;-80
2023/07/23 10:25:32;;;;;;;4.22;2.40;;;;;;;30.49;26.83;99805.41;7655540;32;38800;-80
2023/07/23 10:30:29;;;;;;;6.80;2.47;;;;;;;29.33;26.87;99810.31;7656020;32;36663;-82
2023/07/23 10:34:46;;;;;;;3.78;2.15;;;;;;;29.28;26.70;99813.50;7620930;32;38913;-82
2023/07/23 10:39:20;;;;;;;3.75;2.30;;;;;;;29.64;27.35;99805.09;7632438;32;40725;-81
2023/07/23 10:43:48;;;;;;;5.35;2.80;;;;;;;30.21;26.92;99795.81;7631395;32;38556;-81
2023/07/23 10:48:05;;;;;;;6.45;2.50;;;;;;;30.97;26.71;99799.19;7632543;32;37100;-81
2023/07/23 10:52:22;;;;;;;4.25;2.22;;;;;;;30.50;26.22;99790.94;7632428;32;39292;-81
2023/07/23 10:56:43;;;;;;;6.18;2.83;;;;;;;30.52;25.85;99794.13;7644084;32;40625;-81
2023/07/23 11:01:01;;;;;;;5.35;2.40;;;;;;;30.52;26.09;99782.88;7657289;32;37955;-82
2023/07/23 11:05:18;;;;;;;4.28;2.35;;;;;;;29.80;26.26;99782.25;7658325;32;38105;-82
2023/07/23 11:09:37;;;;;;;4.93;2.25;;;;;;;30.05;25.26;99775.81;7666701;32;40115;-80
2023/07/23 11:13:53;;;;;;;4.70;2.33;;;;;;;30.10;27.03;99767.75;7681986;32;40712;-77
2023/07/23 11:18:10;;;;;;;4.07;2.12;;;;;;;30.59;24.93;99767.19;7656706;32;37906;-77
2023/07/23 11:22:26;;;;;;;3.22;2.05;;;;;;;30.81;26.27;99760.25;7658125;32;37788;-78
2023/07/23 11:26:46;;;;;;;5.32;2.60;;;;;;;30.40;25.92;99757.25;7658254;32;39238;-79
2023/07/23 11:31:03;;;;;;;4.87;2.33;;;;;;;30.49;26.38;99749.97;7658001;32;39588;-78
2023/07/23 11:35:19;;;;;;;5.68;2.30;;;;;;;30.77;26.75;99734.16;7657837;32;37936;-79
2023/07/23 11:39:36;;;;;;;6.12;2.75;;;;;;;31.16;27.12;99741.53;7656928;32;37158;-78
2023/07/23 11:43:52;;;;;;;3.78;2.15;;;;;;;30.46;26.07;99744.34;7657855;32;40130;-78
2023/07/23 11:48:16;;;;;;;4.50;2.22;;;;;;;30.60;26.50;99727.41;7657838;32;40635;-79
2023/07/23 11:52:32;;;;;;;4.57;2.35;;;;;;;31.00;26.17;99722.38;7657823;32;37817;-78
2023/07/23 11:56:48;;;;;;;4.53;2.22;;;;;;;30.63;25.80;99732.22;7657146;32;37684;-79
2023/07/23 12:01:06;;;;;;;5.62;2.55;;;;;;;31.64;25.45;99723.84;7657743;32;39567;-78
2023/07/23 12:05:22;;;;;;;3.92;2.40;;;;;;;32.30;22.41;99715.50;7657436;32;39798;-79
2023/07/23 12:09:39;;;;;;;7.37;2.53;;;;;;;32.28;23.07;99710.28;7657459;32;38931;-79
2023/07/23 12:13:57;;;;;;;4.07;2.00;;;;;;;32.17;23.34;99718.09;7657531;32;37841;-79
2023/07/23 12:18:14;;;;;;;5.10;2.40;;;;;;;31.92;23.29;99702.22;7657199;32;39376;-78
2023/07/23 12:22:31;;;;;;;4.53;2.30;;;;;;;31.62;24.98;99705.78;7656709;32;40150;-78
2023/07/23 12:26:55;;;;;;;4.93;2.35;;;;;;;31.84;23.73;99689.47;7640567;32;37883;-79
2023/07/23 12:31:11;;;;;;;5.95;2.70;;;;;;;32.00;24.82;99686.06;7657135;32;37313;-79
2023/07/23 12:35:28;;;;;;;4.20;2.28;;;;;;;32.32;24.11;99674.41;7657016;32;40054;-79
2023/07/23 12:39:48;;;;;;;5.30;2.60;;;;;;;31.90;23.97;99681.34;7656888;32;39630;-78
2023/07/23 12:44:04;;;;;;;5.78;2.53;;;;;;;31.97;24.54;99669.97;7659392;32;38465;-78
2023/07/23 12:48:21;;;;;;;4.45;2.37;;;;;;;33.03;23.70;99670.94;7660042;32;37097;-79
2023/07/23 12:52:37;;;;;;;6.25;2.40;;;;;;;32.67;23.13;99665.87;7659965;32;40071;-78
2023/07/23 12:56:55;;;;;;;5.12;2.53;;;;;;;33.02;23.08;99661.69;7659741;32;40901;-78
2023/07/23 13:01:12;;;;;;;3.90;2.10;;;;;;;32.83;23.18;99659.59;7659992;32;37330;-78
2023/07/23 13:05:28;;;;;;;4.25;2.53;;;;;;;32.58;25.02;99663.53;7658737;32;37010;-78
2023/07/23 13:09:45;;;;;;;5.30;2.50;;;;;;;32.19;24.07;99659.25;7659728;32;39179;-78
2023/07/23 13:14:01;;;;;;;5.07;2.53;;;;;;;32.42;23.87;99660.56;7659755;32;40924;-78
2023/07/23 13:18:18;;;;;;;4.72;2.58;;;;;;;32.79;23.69;99650.34;7659678;32;37950;-78
2023/07/23 13:22:34;;;;;;;6.07;2.10;;;;;;;32.75;23.48;99653.25;7659297;32;37887;-78
2023/07/23 13:26:50;;;;;;;3.97;2.40;;;;;;;33.23;23.50;99639.97;7659640;32;39236;-79
2023/07/23 13:31:07;;;;;;;4.43;2.30;;;;;;;32.43;25.19;99633.97;7659416;32;40983;-79
2023/07/23 13:35:24;;;;;;;3.95;2.40;;;;;;;33.00;24.39;99640.75;7659507;32;38665;-78
2023/07/23 13:39:40;;;;;;;5.05;2.15;;;;;;;32.96;24.26;99615.41;7659568;32;37850;-79
2023/07/23 13:43:57;;;;;;;4.35;2.30;;;;;;;33.18;24.27;99629.97;7659514;32;39199;-79
2023/07/23 13:48:17;;;;;;;4.87;2.30;;;;;;;33.06;23.55;99619.25;7659094;32;41020;-79
2023/07/23 13:52:33;;;;;;;4.55;2.30;;;;;;;32.13;25.53;99624.28;7658341;32;37941;-79
2023/07/23 13:56:49;;;;;;;3.65;2.05;;;;;;;32.10;23.05;99619.47;7651325;32;260795;-78
2023/07/23 14:01:06;;;;;;;4.57;2.42;;;;;;;32.44;22.71;99610.94;7659316;32;40153;-80
2023/07/23 14:05:25;;;;;;;3.97;2.30;;;;;;;32.56;23.56;99601.91;7659246;32;39680;-74
2023/07/23 14:09:41;;;;;;;4.47;2.20;;;;;;;32.85;24.63;99603.50;7658917;32;37892;-79
2023/07/23 14:13:57;;;;;;;4.93;2.10;;;;;;;32.74;24.04;99590.34;7658627;32;37201;-80
2023/07/23 14:18:14;;;;;;;8.07;2.78;;;;;;;32.85;23.69;99598.63;7658005;32;39520;-77
2023/07/23 14:22:31;;;;;;;4.47;2.22;;;;;;;32.60;24.53;99598.22;7659013;32;39590;-79
2023/07/23 14:26:47;;;;;;;6.85;2.58;;;;;;;32.96;25.23;99592.84;7658925;32;37860;-78
2023/07/23 14:31:04;;;;;;;7.95;2.72;;;;;;;32.97;24.53;99590.81;7658894;32;37855;-76
2023/07/23 14:35:21;;;;;;;4.95;2.72;;;;;;;33.16;23.45;99595.72;7658822;32;39173;-76
2023/07/23 14:39:41;;;;;;;4.70;2.40;;;;;;;33.31;23.97;99579.31;7658644;32;39914;-79
2023/07/23 14:43:59;;;;;;;5.75;2.40;;;;;;;33.24;23.45;99577.41;7658416;32;38009;-79
2023/07/23 14:48:16;;;;;;;3.35;2.03;;;;;;;33.44;23.65;99580.28;7658741;32;37066;-78
2023/07/23 14:52:32;;;;;;;4.60;2.50;;;;;;;33.26;24.21;99566.47;7658705;32;39214;-78
2023/07/23 14:56:53;;;;;;;4.25;2.28;;;;;;;33.52;23.70;99563.97;7658312;32;40856;-80
2023/07/23 15:01:09;;;;;;;5.00;2.40;;;;;;;33.36;24.00;99552.56;7657423;32;37855;-79
2023/07/23 15:05:25;;;;;;;7.53;2.83;;;;;;;33.68;24.87;99552.78;7657420;32;37894;-79
2023/07/23 15:09:42;;;;;;;5.40;2.25;;;;;;;32.99;25.40;99552.44;7658492;32;39411;-81
2023/07/23 15:13:59;;;;;;;4.03;2.17;;;;;;;32.41;25.43;99561.03;7658583;32;40093;-78
2023/07/23 15:18:15;;;;;;;4.07;2.15;;;;;;;32.69;25.59;99556.19;7658315;32;37951;-78
2023/07/23 15:22:32;;;;;;;4.80;2.28;;;;;;;33.06;24.72;99548.69;7658339;32;37252;-79
2023/07/23 15:26:51;;;;;;;4.47;2.10;;;;;;;33.37;24.69;99540.06;7658341;32;39320;-79
2023/07/23 15:31:07;;;;;;;2.95;1.73;;;;;;;32.34;26.39;99547.84;7657144;32;40752;-79
2023/07/23 15:35:24;;;;;;;4.65;2.45;;;;;;;32.35;25.49;99540.19;7657691;32;38740;-78
2023/07/23 15:39:40;;;;;;;4.03;2.05;;;;;;;32.45;26.69;99535.59;7641764;32;36790;-78
2023/07/23 15:43:57;;;;;;;4.37;2.08;;;;;;;32.69;24.98;99536.44;7655932;32;39241;-79
2023/07/23 15:48:13;;;;;;;3.83;2.30;;;;;;;33.14;25.35;99524.75;7656984;32;39949;-78
2023/07/23 15:52:29;;;;;;;5.60;2.50;;;;;;;32.84;25.04;99529.31;7656315;32;38241;-78
2023/07/23 15:56:46;;;;;;;4.37;2.35;;;;;;;33.34;23.83;99515.50;7656433;32;38664;-79
2023/07/23 16:01:02;;;;;;;6.50;2.60;;;;;;;33.23;24.76;99522.16;7656151;32;40305;-83
2023/07/23 16:05:18;;;;;;;4.45;2.45;;;;;;;32.82;24.34;99505.56;7657168;32;39625;-82
2023/07/23 16:09:35;;;;;;;3.53;2.40;;;;;;;32.67;24.32;99503.00;7656298;32;38727;-82
2023/07/23 16:13:51;;;;;;;4.47;2.30;;;;;;;32.59;23.96;99512.00;7656678;32;37033;-82
2023/07/23 16:18:09;;;;;;;5.15;2.53;;;;;;;32.86;23.61;99492.19;7655334;32;39541;-83
2023/07/23 16:22:31;;;;;;;3.78;2.12;;;;;;;32.05;25.63;99496.72;7651446;32;39807;-83
2023/07/23 16:26:48;;;;;;;6.30;2.50;;;;;;;31.83;25.71;99496.22;7650254;32;37848;-84
2023/07/23 16:31:04;;;;;;;9.13;2.83;;;;;;;32.48;24.25;99490.41;7655755;32;37001;-84
2023/07/23 16:35:21;;;;;;;3.72;2.05;;;;;;;32.28;25.06;99484.69;7654224;32;38964;-80
2023/07/23 16:39:37;;;;;;;5.07;2.37;;;;;;;31.98;25.34;99477.88;7637673;32;40718;-81
2023/07/23 16:43:54;;;;;;;4.20;2.12;;;;;;;32.24;25.24;99485.97;7655350;32;38726;-84
2023/07/23 16:48:10;;;;;;;5.93;2.55;;;;;;;31.65;24.75;99485.19;7645691;32;37203;-81
2023/07/23 16:52:26;;;;;;;7.93;2.80;;;;;;;31.55;25.15;99486.94;7644623;32;39913;-82
2023/07/23 16:56:43;;;;;;;5.85;2.00;;;;;;;31.35;25.92;99494.41;7653952;32;40043;-81
2023/07/23 17:00:59;;;;;;;5.07;2.58;;;;;;;31.49;25.96;99491.41;7653374;32;37776;-82
2023/07/23 17:05:16;;;;;;;6.30;2.53;;;;;;;31.93;23.65;99488.84;7653398;32;37733;-82
2023/07/23 17:09:32;;;;;;;4.30;2.15;;;;;;;31.95;25.81;99492.03;7652894;32;39485;-82
2023/07/23 17:13:50;;;;;;;5.32;2.50;;;;;;;32.01;24.61;99491.13;7652964;32;41202;-81
2023/07/23 17:18:06;;;;;;;3.80;2.28;;;;;;;31.69;24.85;99497.22;7652647;32;37937;-83
2023/07/23 17:22:23;;;;;;;6.82;2.55;;;;;;;31.45;23.55;99488.63;7652794;32;36733;-82
2023/07/23 17:26:39;;;;;;;4.20;2.42;;;;;;;31.59;24.47;99484.84;7652979;32;40108;-83
2023/07/23 17:31:01;;;;;;;5.22;2.80;;;;;;;31.37;24.60;99495.56;7656143;32;39826;-82
2023/07/23 17:35:17;;;;;;;4.95;2.58;;;;;;;31.67;24.82;99482.75;7654834;32;37978;-83
2023/07/23 17:39:34;;;;;;;3.92;2.20;;;;;;;31.53;24.57;99482.91;7652818;32;36757;-83
2023/07/23 17:43:50;;;;;;;4.68;2.70;;;;;;;31.67;25.26;99493.19;7655716;32;40113;-81
2023/07/23 17:48:07;;;;;;;5.40;2.58;;;;;;;31.66;25.45;99497.25;7658194;32;41246;-82
2023/07/23 17:52:25;;;;;;;4.25;2.08;;;;;;;31.65;25.47;99496.47;7658418;32;37843;-82
2023/07/23 17:56:42;;;;;;;4.65;2.42;;;;;;;31.43;26.52;99498.72;7657683;32;36117;-83
2023/07/23 18:00:58;;;;;;;4.68;2.53;;;;;;;31.31;27.51;99493.66;7656766;32;39554;-82
2023/07/23 18:05:18;;;;;;;5.72;2.50;;;;;;;31.00;28.82;99485.94;7658141;32;40800;-83
2023/07/23 18:09:34;;;;;;;5.53;2.87;;;;;;;30.78;29.54;99493.78;7655781;32;38422;-82
2023/07/23 18:13:51;;;;;;;5.97;2.95;;;;;;;30.55;30.26;99488.78;7653850;32;37820;-82
2023/07/23 18:18:07;;;;;;;5.80;2.40;;;;;;;30.34;29.59;99486.91;7655676;32;40175;-82
2023/07/23 18:22:23;;;;;;;3.22;2.10;;;;;;;30.30;29.10;99484.13;7658204;32;39968;-82
2023/07/23 18:26:39;;;;;;;4.32;2.60;;;;;;;30.17;28.81;99485.84;7657665;32;38020;-83
2023/07/23 18:30:59;;;;;;;4.10;2.47;;;;;;;30.02;28.58;99484.34;7643813;32;37296;-82
2023/07/23 18:35:16;;;;;;;3.10;2.17;;;;;;;29.76;29.29;99489.31;7646305;32;40115;-81
2023/07/23 18:39:33;;;;;;;5.00;2.50;;;;;;;29.72;30.48;99488.50;7655213;32;39942;-82
2023/07/23 18:43:49;;;;;;;4.32;2.58;;;;;;;29.67;29.85;99492.53;7653402;32;37793;-82
2023/07/23 18:48:06;;;;;;;3.97;2.08;;;;;;;29.61;30.66;99490.56;7657830;32;37049;-82
2023/07/23 18:52:22;;;;;;;4.75;2.37;;;;;;;29.39;31.49;99501.91;7657559;32;39471;-82
2023/07/23 18:56:42;;;;;;;4.97;2.80;;;;;;;29.25;31.80;99494.28;7641220;32;40536;-82
2023/07/23 19:00:59;;;;;;;8.93;2.90;;;;;;;29.00;32.35;99499.97;7657549;32;37657;-81
2023/07/23 19:05:15;;;;;;;5.90;2.20;;;;;;;28.94;32.17;99487.53;7652367;32;37882;-84
2023/07/23 19:09:32;;;;;;;5.78;2.40;;;;;;;28.82;32.57;99489.59;7639294;32;40169;-80
2023/07/23 19:13:49;;;;;;;5.12;2.67;;;;;;;28.87;32.97;99495.97;7642579;32;41264;-81
2023/07/23 19:18:06;;;;;;;6.35;2.40;;;;;;;28.64;33.18;99497.22;7640711;32;37942;-83
2023/07/23 19:22:22;;;;;;;7.45;2.80;;;;;;;28.60;33.20;99499.22;7657024;32;37593;-82
2023/07/23 19:26:39;;;;;;;9.75;3.08;;;;;;;28.40;33.76;99493.19;7649087;32;40101;-82
2023/07/23 19:31:00;;;;;;;5.37;2.40;;;;;;;28.40;34.10;99501.59;7639910;32;40966;-82
2023/07/23 19:35:18;;;;;;;6.07;2.30;;;;;;;28.12;34.81;99516.38;7639573;32;37979;-82
2023/07/23 19:39:34;;;;;;;7.72;2.28;;;;;;;28.03;35.01;99511.16;7631120;32;36961;-82
2023/07/23 19:43:51;;;;;;;5.25;2.53;;;;;;;27.94;35.26;99514.34;7638390;32;39887;-82
2023/07/23 19:48:07;;;;;;;4.97;2.65;;;;;;;27.81;35.54;99515.88;7642505;32;38465;-83
2023/07/23 19:52:24;;;;;;;5.72;2.47;;;;;;;27.52;36.42;99510.97;7653413;32;37890;-83
2023/07/23 19:56:40;;;;;;;4.65;2.47;;;;;;;27.35;36.67;99511.69;7656855;32;37772;-82
2023/07/23 20:00:57;;;;;;;5.75;2.72;;;;;;;27.37;36.72;99517.69;7651560;32;39133;-82
2023/07/23 20:05:13;;;;;;;6.07;2.70;;;;;;;27.23;37.07;99526.78;7648478;32;40153;-82
2023/07/23 20:09:32;;;;;;;6.32;2.55;;;;;;;27.07;37.13;99517.91;7649075;32;38176;-82
2023/07/23 20:13:48;;;;;;;4.68;2.53;;;;;;;26.96;38.10;99517.84;7648261;32;36148;-80